createdAt,value
2018-11-14T02:37:33.649Z,40.23
2018-11-14T02:40:02.207Z,36.40
2018-11-14T02:42:30.757Z,40.27
2018-11-14T02:44:59.436Z,37.33
2018-11-14T02:47:28.074Z,35.93
2018-11-14T02:49:56.706Z,36.70
2018-11-14T02:52:25.373Z,35.27
2018-11-14T02:54:53.989Z,36.43
2018-11-14T02:57:23.041Z,33.33
2018-11-14T02:59:51.665Z,32.97
2018-11-14T03:02:20.356Z,32.67
2018-11-14T03:04:48.964Z,33.23
2018-11-14T03:07:17.611Z,34.57
2018-11-14T03:09:46.269Z,33.27
2018-11-14T03:12:15.058Z,34.07
2018-11-14T03:14:43.620Z,35.40
2018-11-14T03:17:12.288Z,33.80
2018-11-14T03:19:40.963Z,33.50
2018-11-14T03:22:09.576Z,34.73
2018-11-14T03:24:38.209Z,33.93
2018-11-14T03:27:06.933Z,35.30
2018-11-14T03:29:35.881Z,32.20
2018-11-14T03:32:04.565Z,32.37
2018-11-14T03:34:33.198Z,33.13
2018-11-14T03:37:01.857Z,32.77
2018-11-14T03:39:30.475Z,31.67
2018-11-14T03:41:59.084Z,32.23
2018-11-14T03:44:27.699Z,33.00
2018-11-14T03:46:56.296Z,33.13
2018-11-14T03:49:24.933Z,32.77
2018-11-14T03:51:53.600Z,33.67
2018-11-14T03:54:23.036Z,32.20
2018-11-14T03:56:51.681Z,30.27
2018-11-14T03:59:20.311Z,28.93
2018-11-14T04:01:48.981Z,30.83
2018-11-14T04:04:17.629Z,30.60
2018-11-14T04:06:46.237Z,29.20
2018-11-14T04:09:14.875Z,31.30
2018-11-14T04:11:43.490Z,30.23
2018-11-14T04:14:12.132Z,29.37
2018-11-14T04:16:40.756Z,29.33
2018-11-14T04:19:09.416Z,29.87
2018-11-14T04:21:38.203Z,30.80
2018-11-14T04:24:06.893Z,30.17
2018-11-14T04:26:35.572Z,28.83
2018-11-14T04:29:04.277Z,30.13
2018-11-14T04:31:32.868Z,31.27
2018-11-14T04:34:01.461Z,31.90
2018-11-14T04:36:30.121Z,30.93
2018-11-14T04:38:58.748Z,29.10
2018-11-14T04:41:27.397Z,25.80
2018-11-14T04:43:56.013Z,29.10
2018-11-14T04:46:24.693Z,30.47
2018-11-14T04:48:53.294Z,29.83
2018-11-14T04:51:21.913Z,29.20
2018-11-14T04:53:50.532Z,30.83
2018-11-14T04:56:19.140Z,29.30
2018-11-14T04:58:47.752Z,30.53
2018-11-14T05:01:16.378Z,31.00
2018-11-14T05:03:45.045Z,30.30
2018-11-14T05:06:13.662Z,30.50
2018-11-14T05:08:42.258Z,29.93
2018-11-14T05:11:10.933Z,28.93
2018-11-14T05:13:39.584Z,30.00
2018-11-14T05:16:08.250Z,29.23
2018-11-14T05:18:36.881Z,29.70
2018-11-14T05:21:05.732Z,28.73
2018-11-14T05:23:34.373Z,30.27
2018-11-14T05:26:03.044Z,30.60
2018-11-14T05:28:31.683Z,30.90
2018-11-14T05:31:00.414Z,29.57
2018-11-14T05:33:29.101Z,29.97
2018-11-14T05:35:57.729Z,30.30
2018-11-14T05:38:26.380Z,29.03
2018-11-14T05:40:54.977Z,30.10
2018-11-14T05:43:23.641Z,29.63
2018-11-14T05:45:52.278Z,30.90
2018-11-14T05:48:20.893Z,29.93
2018-11-14T05:50:49.574Z,29.70
2018-11-14T05:53:18.176Z,29.30
2018-11-14T05:55:46.770Z,30.53
2018-11-14T05:58:15.440Z,32.73
2018-11-14T06:00:44.060Z,29.33
2018-11-14T06:03:12.765Z,29.40
2018-11-14T06:05:41.457Z,32.37
2018-11-14T06:08:10.477Z,31.37
2018-11-14T06:10:39.246Z,31.53
2018-11-14T06:13:07.870Z,31.60
2018-11-14T06:15:36.564Z,34.90
2018-11-14T06:18:05.298Z,38.03
2018-11-14T06:20:33.901Z,31.80
2018-11-14T06:23:02.576Z,30.43
2018-11-14T06:25:38.255Z,31.63
2018-11-14T06:28:08.266Z,31.63
2018-11-14T06:30:37.593Z,32.27
2018-11-14T06:33:07.295Z,30.60
2018-11-14T06:35:35.952Z,31.40
2018-11-14T06:38:04.689Z,32.10
2018-11-14T06:40:33.536Z,31.87
2018-11-14T06:43:02.260Z,31.23
2018-11-14T06:45:32.093Z,33.20
2018-11-14T06:48:01.473Z,32.40
2018-11-14T06:50:30.185Z,41.37
2018-11-14T06:53:00.365Z,37.37
2018-11-14T06:55:28.992Z,34.30
2018-11-14T06:57:57.633Z,34.63
2018-11-14T07:00:27.453Z,34.80
2018-11-14T07:02:56.727Z,35.03
2018-11-14T07:05:25.456Z,37.23
2018-11-14T07:07:54.164Z,38.00
2018-11-14T07:10:24.133Z,36.80
2018-11-14T07:12:52.877Z,37.10
2018-11-14T07:15:22.644Z,38.80
2018-11-14T07:17:52.379Z,35.67
2018-11-14T07:20:25.229Z,35.73
2018-11-14T07:22:53.905Z,36.40
2018-11-14T07:25:22.859Z,38.70
2018-11-14T07:27:51.517Z,37.87
2018-11-14T07:30:22.105Z,38.60
2018-11-14T07:32:52.261Z,39.60
2018-11-14T07:35:21.049Z,38.00
2018-11-14T07:38:52.846Z,39.10
2018-11-14T07:41:23.717Z,39.53
2018-11-14T07:43:52.801Z,41.10
2018-11-14T07:46:22.020Z,40.93
2018-11-14T07:48:51.243Z,43.40
2018-11-14T07:51:19.897Z,42.03
2018-11-14T07:53:48.669Z,45.03
2018-11-14T07:56:17.394Z,44.40
2018-11-14T07:58:46.048Z,51.33
2018-11-14T08:01:14.869Z,47.83
2018-11-14T08:03:43.656Z,46.80
2018-11-14T08:06:12.314Z,50.50
2018-11-14T08:08:40.977Z,46.47
2018-11-14T08:11:09.848Z,46.97
2018-11-14T08:13:39.993Z,45.10
2018-11-14T08:16:08.645Z,46.30
2018-11-14T08:18:37.273Z,47.23
2018-11-14T08:21:06.237Z,44.40
2018-11-14T08:23:34.937Z,45.40
2018-11-14T08:26:03.617Z,45.50
2018-11-14T08:28:32.203Z,43.63
2018-11-14T08:31:00.833Z,46.60
2018-11-14T08:33:29.478Z,43.73
2018-11-14T08:35:58.241Z,54.47
2018-11-14T08:38:27.115Z,43.97
2018-11-14T08:40:55.989Z,42.37
2018-11-14T08:43:24.981Z,44.00
2018-11-14T08:45:53.649Z,45.70
2018-11-14T08:48:22.369Z,44.77
2018-11-14T08:50:51.026Z,38.07
2018-11-14T08:53:19.790Z,42.13
2018-11-14T08:55:48.748Z,36.17
2018-11-14T08:58:17.481Z,35.77
2018-11-14T09:00:46.210Z,33.73
2018-11-14T09:03:15.233Z,32.77
2018-11-14T09:05:43.892Z,34.47
2018-11-14T09:08:12.542Z,34.00
2018-11-14T09:10:41.177Z,42.17
2018-11-14T09:13:15.243Z,44.93
2018-11-14T09:15:44.093Z,41.53
2018-11-14T09:18:12.750Z,35.20
2018-11-14T09:20:41.412Z,30.57
2018-11-14T09:23:10.045Z,29.97
2018-11-14T09:25:38.687Z,25.27
2018-11-14T09:28:07.320Z,28.07
2018-11-14T09:30:35.933Z,25.27
2018-11-14T09:33:04.620Z,25.10
2018-11-14T09:35:33.294Z,21.83
2018-11-14T09:38:02.162Z,27.00
2018-11-14T09:40:31.292Z,24.73
2018-11-14T09:42:59.950Z,26.43
2018-11-14T09:45:30.036Z,26.70
2018-11-14T09:47:58.808Z,27.13
2018-11-14T09:50:29.542Z,28.30
2018-11-14T09:53:00.400Z,28.73
2018-11-14T09:55:29.222Z,28.63
2018-11-14T09:57:57.882Z,26.47
2018-11-14T10:00:27.943Z,28.83
2018-11-14T10:02:58.688Z,29.43
2018-11-14T10:05:27.389Z,26.00
2018-11-14T10:07:56.122Z,24.43
2018-11-14T10:10:25.318Z,26.73
2018-11-14T10:12:54.020Z,25.70
2018-11-14T10:15:23.963Z,26.53
2018-11-14T10:17:52.617Z,24.13
2018-11-14T10:20:22.540Z,24.70
2018-11-14T10:22:51.310Z,26.07
2018-11-14T10:25:20.237Z,27.97
2018-11-14T10:27:49.542Z,23.17
2018-11-14T10:30:19.854Z,27.47
2018-11-14T10:32:49.204Z,25.57
2018-11-14T10:35:17.819Z,24.07
2018-11-14T10:37:46.565Z,26.47
2018-11-14T10:40:17.872Z,26.67
2018-11-14T10:42:46.688Z,26.53
2018-11-14T10:45:17.434Z,25.13
2018-11-14T10:47:46.113Z,28.53
2018-11-14T10:50:19.141Z,30.27
2018-11-14T10:52:47.817Z,28.67
2018-11-14T10:55:17.089Z,27.73
2018-11-14T10:57:46.117Z,29.77
2018-11-14T11:00:26.146Z,29.97
2018-11-14T11:03:00.173Z,31.83
2018-11-14T11:05:34.958Z,31.23
2018-11-14T11:08:08.950Z,29.30
2018-11-14T11:10:43.408Z,28.23
2018-11-14T11:13:18.750Z,29.17
2018-11-14T11:15:52.576Z,29.20
2018-11-14T11:18:25.379Z,33.97
2018-11-14T11:20:54.141Z,31.07
2018-11-14T11:23:22.884Z,31.60
2018-11-14T11:25:51.604Z,31.77
2018-11-14T11:28:20.417Z,32.27
2018-11-14T11:30:49.541Z,32.53
2018-11-14T11:33:18.110Z,33.03
2018-11-14T11:35:46.806Z,31.87
2018-11-14T11:38:16.538Z,32.33
2018-11-14T11:40:45.443Z,34.70
2018-11-14T11:43:14.047Z,33.13
2018-11-14T11:45:42.649Z,34.20
2018-11-14T11:48:11.411Z,35.57
2018-11-14T11:50:40.063Z,35.03
2018-11-14T11:53:08.762Z,35.53
2018-11-14T11:55:37.400Z,32.33
2018-11-14T11:58:06.736Z,31.73
2018-11-14T12:00:35.679Z,32.30
2018-11-14T12:03:04.171Z,34.13
2018-11-14T12:05:32.801Z,32.70
2018-11-14T12:08:01.458Z,30.33
2018-11-14T12:10:30.214Z,35.23
2018-11-14T12:12:58.884Z,34.20
2018-11-14T12:15:27.568Z,32.50
2018-11-14T12:17:56.262Z,34.80
2018-11-14T12:20:24.820Z,34.53
2018-11-14T12:22:53.460Z,36.33
2018-11-14T12:25:22.121Z,37.37
2018-11-14T12:27:50.823Z,35.47
2018-11-14T12:30:19.717Z,39.07
2018-11-14T12:32:48.478Z,33.43
2018-11-14T12:35:17.786Z,39.57
2018-11-14T12:37:46.472Z,35.87
2018-11-14T12:40:15.772Z,37.60
2018-11-14T12:42:44.421Z,37.57
2018-11-14T12:45:15.205Z,38.43
2018-11-14T12:47:43.777Z,37.93
2018-11-14T12:50:13.424Z,37.97
2018-11-14T12:52:42.411Z,40.37
2018-11-14T12:55:12.821Z,39.40
2018-11-14T12:57:41.524Z,41.07
2018-11-14T13:00:12.783Z,40.40
2018-11-14T13:02:41.435Z,37.87
2018-11-14T13:05:11.146Z,41.63
2018-11-14T13:10:15.214Z,41.90
2018-11-14T13:12:44.626Z,43.80
2018-11-14T13:15:14.455Z,44.70
2018-11-14T13:17:43.892Z,41.97
2018-11-14T13:20:16.981Z,41.87
2018-11-14T13:22:46.128Z,42.33
2018-11-14T13:25:15.547Z,40.10
2018-11-14T13:27:45.937Z,39.33
2018-11-14T13:30:18.189Z,39.37
2018-11-14T13:32:47.656Z,38.90
2018-11-14T13:35:17.534Z,44.97
2018-11-14T13:37:47.081Z,42.87
2018-11-14T13:40:15.777Z,46.77
2018-11-14T13:42:44.618Z,46.03
2018-11-14T13:45:14.605Z,42.00
2018-11-14T13:47:43.712Z,44.47
2018-11-14T13:50:16.493Z,43.53
2018-11-14T13:52:45.088Z,42.93
2018-11-14T13:55:15.107Z,44.50
2018-11-14T13:57:45.099Z,39.73
2018-11-14T14:00:15.436Z,40.67
2018-11-14T14:02:45.937Z,39.33
2018-11-14T14:05:16.004Z,41.17
2018-11-14T14:07:44.772Z,38.00
2018-11-14T14:10:14.714Z,41.50
2018-11-14T14:12:45.567Z,41.27
2018-11-14T14:15:16.152Z,39.97
2018-11-14T14:17:45.859Z,37.83
2018-11-14T14:20:14.959Z,37.90
2018-11-14T14:22:43.721Z,41.77
2018-11-14T14:25:13.757Z,42.80
2018-11-14T14:27:42.475Z,41.93
2018-11-14T14:30:13.208Z,40.60
2018-11-14T14:32:42.800Z,40.93
2018-11-14T14:35:12.623Z,41.03
2018-11-14T14:37:41.447Z,43.87
2018-11-14T14:40:14.175Z,42.77
2018-11-14T14:42:43.053Z,43.23
2018-11-14T14:45:12.905Z,42.63
2018-11-14T14:47:41.670Z,42.17
2018-11-14T14:50:12.741Z,41.83
2018-11-14T14:52:41.886Z,36.73
2018-11-14T14:55:13.033Z,35.17
2018-11-14T14:57:42.152Z,38.63
2018-11-14T15:00:15.576Z,37.10
2018-11-14T15:02:44.574Z,36.00
2018-11-14T15:05:13.943Z,32.60
2018-11-14T15:07:42.849Z,32.90
2018-11-14T15:10:16.777Z,33.60
2018-11-14T15:12:45.576Z,32.53
2018-11-14T15:15:15.188Z,29.50
2018-11-14T15:17:44.204Z,32.83
2018-11-14T15:20:17.109Z,32.10
2018-11-14T15:22:45.845Z,34.40
2018-11-14T15:25:15.686Z,31.87
2018-11-14T15:27:44.856Z,33.33
2018-11-14T15:30:16.479Z,32.63
2018-11-14T15:32:45.203Z,34.27
2018-11-14T15:35:14.150Z,30.53
2018-11-14T15:37:42.840Z,31.40
2018-11-14T15:40:14.080Z,32.40
2018-11-14T15:42:42.877Z,34.40
2018-11-14T15:45:13.700Z,33.47
2018-11-14T15:47:42.477Z,31.70
2018-11-14T15:50:13.229Z,32.60
2018-11-14T15:52:42.851Z,31.27
2018-11-14T15:55:12.572Z,29.83
2018-11-14T15:57:41.391Z,27.97
2018-11-14T16:00:12.905Z,30.10
2018-11-14T16:02:42.296Z,30.87
2018-11-14T16:05:13.874Z,29.43
2018-11-14T16:07:43.461Z,29.07
2018-11-14T16:10:13.416Z,27.03
2018-11-14T16:12:42.484Z,28.63
2018-11-14T16:15:13.586Z,29.10
2018-11-14T16:17:42.567Z,28.50
2018-11-14T16:20:13.575Z,28.57
2018-11-14T16:22:42.302Z,25.20
2018-11-14T16:25:15.391Z,24.63
2018-11-14T16:27:44.947Z,27.00
2018-11-14T16:30:18.464Z,27.33
2018-11-14T16:32:48.311Z,25.30
2018-11-14T16:35:17.052Z,24.27
2018-11-14T16:37:45.865Z,25.33
2018-11-14T16:40:16.222Z,26.63
2018-11-14T16:42:44.915Z,25.50
2018-11-14T16:45:14.356Z,26.40
2018-11-14T16:47:43.292Z,25.77
2018-11-14T16:50:14.228Z,21.37
2018-11-14T16:52:43.030Z,22.23
2018-11-14T16:55:13.046Z,24.63
2018-11-14T16:57:42.541Z,23.00
2018-11-14T17:00:14.478Z,23.73
2018-11-14T17:02:43.329Z,22.80
2018-11-14T17:05:12.748Z,21.60
2018-11-14T17:07:41.536Z,21.90
2018-11-14T17:10:13.209Z,20.93
2018-11-14T17:12:42.424Z,18.30
2018-11-14T17:15:12.870Z,20.67
2018-11-14T17:17:41.788Z,20.53
2018-11-14T17:20:11.432Z,19.30
2018-11-14T17:22:40.420Z,21.43
2018-11-14T17:25:10.179Z,20.53
2018-11-14T17:27:38.897Z,19.40
2018-11-14T17:30:11.844Z,19.77
2018-11-14T17:32:40.560Z,19.63
2018-11-14T17:35:10.384Z,20.23
2018-11-14T17:37:39.806Z,16.57
2018-11-14T17:40:11.934Z,18.80
2018-11-14T17:42:41.259Z,15.93
2018-11-14T17:45:11.964Z,18.63
2018-11-14T17:47:40.757Z,18.20
2018-11-14T17:50:15.746Z,17.83
2018-11-14T17:52:44.464Z,19.70
2018-11-14T17:55:14.264Z,18.37
2018-11-14T17:57:43.143Z,18.27
2018-11-14T18:00:14.815Z,18.83
2018-11-14T18:02:44.384Z,19.10
2018-11-14T18:05:15.569Z,18.67
2018-11-14T18:07:45.081Z,20.30
2018-11-14T18:10:15.788Z,19.90
2018-11-14T18:12:46.276Z,18.70
2018-11-14T18:15:16.092Z,18.50
2018-11-14T18:17:45.367Z,20.23
2018-11-14T18:20:15.231Z,18.73
2018-11-14T18:22:44.670Z,18.57
2018-11-14T18:25:13.865Z,20.27
2018-11-14T18:27:42.516Z,17.33
2018-11-14T18:30:16.743Z,17.50
2018-11-14T18:32:45.343Z,18.77
2018-11-14T18:35:15.470Z,18.20
2018-11-14T18:37:44.745Z,17.93
2018-11-14T18:40:15.184Z,18.80
2018-11-14T18:42:43.856Z,18.83
2018-11-14T18:45:18.166Z,19.93
2018-11-14T18:47:47.262Z,20.33
2018-11-14T18:50:16.773Z,20.77
2018-11-14T18:52:46.193Z,19.03
2018-11-14T18:55:15.909Z,19.27
2018-11-14T18:57:44.869Z,20.73
2018-11-14T19:00:22.166Z,20.07
2018-11-14T19:02:51.736Z,21.37
2018-11-14T19:05:20.864Z,22.83
2018-11-14T19:07:49.653Z,20.07
2018-11-14T19:10:19.968Z,19.90
2018-11-14T19:12:49.252Z,20.87
2018-11-14T19:15:19.338Z,21.33
2018-11-14T19:17:48.009Z,19.43
2018-11-14T19:20:19.072Z,20.07
2018-11-14T19:22:47.809Z,21.13
2018-11-14T19:25:17.880Z,21.73
2018-11-14T19:27:47.196Z,19.57
2018-11-14T19:30:17.359Z,20.13
2018-11-14T19:32:47.174Z,18.77
2018-11-14T19:35:16.120Z,20.80
2018-11-14T19:37:45.832Z,19.07
2018-11-14T19:40:16.289Z,20.40
2018-11-14T19:42:45.602Z,19.40
2018-11-14T19:45:16.529Z,19.27
2018-11-14T19:47:45.136Z,20.00
2018-11-14T19:50:15.108Z,19.90
2018-11-14T19:52:44.204Z,19.97
2018-11-14T19:55:14.307Z,20.67
2018-11-14T19:57:43.950Z,19.83
2018-11-14T20:00:17.863Z,19.87
2018-11-14T20:02:46.557Z,19.37
2018-11-14T20:05:16.064Z,19.23
2018-11-14T20:07:44.812Z,19.33
2018-11-14T20:10:17.056Z,18.93
2018-11-14T20:12:46.172Z,19.33
2018-11-14T20:15:16.537Z,19.63
2018-11-14T20:17:45.826Z,18.83
2018-11-14T20:20:16.865Z,17.93
2018-11-14T20:22:46.084Z,16.63
2018-11-14T20:25:14.708Z,18.37
2018-11-14T20:27:43.831Z,19.23
2018-11-14T20:30:18.414Z,20.00
2018-11-14T20:32:47.097Z,19.30
2018-11-14T20:35:16.876Z,21.10
2018-11-14T20:37:45.564Z,20.80
2018-11-14T20:40:15.667Z,19.87
2018-11-14T20:42:44.797Z,20.53
2018-11-14T20:45:17.049Z,19.23
2018-11-14T20:47:45.723Z,20.03
2018-11-14T20:50:17.986Z,17.77
2018-11-14T20:52:47.868Z,21.00
2018-11-14T20:55:16.529Z,20.67
2018-11-14T20:57:45.606Z,19.70
2018-11-14T21:00:36.733Z,20.40
2018-11-14T21:03:06.125Z,21.77
2018-11-14T21:05:34.791Z,21.63
